Manuel Alba — E.A.S.W — position and weather

sailwx.info

Track history (hours):
 
Tides and Currents Weather Stations Pressure Air Temp Water Temp Dewpoint Dewpoint Depression Visibility Wind Speed Wind Dir Waves Ship Positions

Manuel Alba

Last reported at 2017-Dec-27 21:33 UTC. Time now 2018-Jan-18 02:26 UTC.
Position N 38°14' W 029°47'.
Warning: this ship's position is 21 days out of date.

Length 32 m; draft 3.8 m.

Type: Fishing. MMSI: 224052370.

Date/timePositionNaut miles runAvg speedWind from/ knotsBaromVisibWave heightAir tempDewpointWater temp
2017-Dec-27 21:33N 38°14' W 029°47'1 6.9
2017-Dec-27 21:23N 38°14' W 029°46'3 7.0
2017-Dec-27 21:00N 38°15' W 029°43'4 7.0
2017-Dec-27 20:30N 38°16' W 029°38'4 7.1
2017-Dec-27 20:01N 38°17' W 029°34'3 6.9
2017-Dec-27 19:30N 38°19' W 029°30'4 7.1
2017-Dec-27 19:00N 38°20' W 029°26'4 7.1
2017-Dec-27 18:30N 38°21' W 029°21'3 7.0
2017-Dec-27 18:00N 38°22' W 029°17'4 7.1
2017-Dec-27 17:30N 38°23' W 029°13'4 7.1
2017-Dec-27 17:00N 38°24' W 029°08'4 7.3
2017-Dec-27 16:30N 38°24' W 029°04'4 7.6
2017-Dec-27 16:00N 38°25' W 028°59'4 7.7
2017-Dec-27 15:30N 38°26' W 028°54'4 7.8
2017-Dec-27 15:00N 38°27' W 028°49'4 7.7
2017-Dec-27 14:30N 38°28' W 028°45'4 7.9
2017-Dec-27 14:00N 38°29' W 028°40'3 6.4
2017-Dec-27 13:30N 38°32' W 028°37'0 0.9
2017-Dec-27 13:00N 38°32' W 028°37'0 0.0
2017-Dec-27 12:30N 38°32' W 028°37'0 0.0
2017-Dec-27 12:00N 38°32' W 028°37'0 0.0
2017-Dec-27 11:26N 38°32' W 028°37'0 0.0
2017-Dec-27 10:59N 38°32' W 028°37'0 0.0
2017-Dec-27 10:29N 38°32' W 028°37'0 0.0
2017-Dec-27 10:00N 38°32' W 028°37'0 0.0
2017-Dec-27 09:21N 38°32' W 028°37'0 0.0
2017-Dec-27 08:58N 38°32' W 028°37'0 0.0
2017-Dec-27 08:30N 38°32' W 028°37'0 0.0
2017-Dec-27 07:58N 38°32' W 028°37'0 0.0
2017-Dec-27 07:28N 38°32' W 028°37'0 0.0
2017-Dec-27 06:59N 38°32' W 028°37'0 0.0
2017-Dec-27 06:30N 38°32' W 028°37'0 0.0
2017-Dec-27 05:58N 38°32' W 028°37'0 0.0
2017-Dec-27 05:29N 38°32' W 028°37'0 0.0
2017-Dec-27 05:00N 38°32' W 028°37'0 0.0
2017-Dec-27 04:30N 38°32' W 028°37'0 0.0
2017-Dec-27 03:56N 38°32' W 028°37'0 0.0
2017-Dec-27 03:26N 38°32' W 028°37'0 0.0
2017-Dec-27 02:58N 38°32' W 028°37'0 0.0
2017-Dec-27 02:30N 38°32' W 028°37'0 0.0
2017-Dec-27 01:59N 38°32' W 028°37'0 0.0
2017-Dec-27 01:28N 38°32' W 028°37'0 0.0
2017-Dec-27 00:59N 38°32' W 028°37'0 0.0
2017-Dec-27 00:29N 38°32' W 028°37'0 0.0
2017-Dec-26 23:58N 38°32' W 028°37'0 0.0
2017-Dec-26 23:27N 38°32' W 028°37'0 0.0
2017-Dec-26 23:00N 38°32' W 028°37'0 0.0
2017-Dec-26 22:30N 38°32' W 028°37'0 0.0
2017-Dec-26 22:00N 38°32' W 028°37'0 0.0
2017-Dec-26 21:27N 38°32' W 028°37'0 0.0
2017-Dec-26 20:59N 38°32' W 028°37'0 0.0
2017-Dec-26 20:30N 38°32' W 028°37'0 0.0
2017-Dec-26 20:00N 38°32' W 028°37'0 0.0
2017-Dec-26 19:29N 38°32' W 028°37'0 0.0
2017-Dec-26 19:01N 38°32' W 028°37'0 0.0
2017-Dec-26 18:30N 38°32' W 028°37'0 0.0
2017-Dec-26 18:00N 38°32' W 028°37'0 0.1
2017-Dec-26 17:29N 38°32' W 028°37'0 0.0
2017-Dec-26 16:57N 38°32' W 028°37'0 0.0
2017-Dec-26 16:29N 38°32' W 028°37'0 0.0
2017-Dec-26 15:59N 38°32' W 028°37'0 0.0
2017-Dec-26 15:24N 38°32' W 028°37'0 0.0
2017-Dec-26 15:00N 38°32' W 028°37'0 0.0
2017-Dec-26 14:29N 38°32' W 028°37'0 0.0
2017-Dec-26 13:56N 38°32' W 028°37'0 0.0
2017-Dec-26 13:29N 38°32' W 028°37'0 0.0
2017-Dec-26 13:00N 38°32' W 028°37'0 0.0
2017-Dec-26 12:29N 38°32' W 028°37'0 0.0
2017-Dec-26 11:56N 38°32' W 028°37'0 0.0
2017-Dec-26 11:29N 38°32' W 028°37'0 0.0
2017-Dec-26 10:59N 38°32' W 028°37'0 0.0
2017-Dec-26 10:28N 38°32' W 028°37'0 0.0
2017-Dec-26 10:00N 38°32' W 028°37'0 0.0
2017-Dec-26 09:30N 38°32' W 028°37'0 0.0
2017-Dec-26 08:56N 38°32' W 028°37'0 0.0
2017-Dec-26 08:28N 38°32' W 028°37'0 0.0
2017-Dec-26 07:58N 38°32' W 028°37'0 0.0
2017-Dec-26 07:29N 38°32' W 028°37'0 0.0
2017-Dec-26 06:58N 38°32' W 028°37'0 0.0
2017-Dec-26 06:30N 38°32' W 028°37'0 0.0
2017-Dec-26 05:53N 38°32' W 028°37'0 0.0
2017-Dec-26 05:29N 38°32' W 028°37'0 0.0
2017-Dec-26 05:00N 38°32' W 028°37'0 0.0
2017-Dec-26 04:29N 38°32' W 028°37'0 0.0
2017-Dec-26 04:00N 38°32' W 028°37'0 0.0
2017-Dec-26 03:29N 38°32' W 028°37'0 0.0
2017-Dec-26 02:59N 38°32' W 028°37'0 0.0
2017-Dec-26 02:26N 38°32' W 028°37'0 0.0
2017-Dec-26 01:58N 38°32' W 028°37'0 0.0
2017-Dec-26 01:29N 38°32' W 028°37'0 0.0
2017-Dec-26 00:59N 38°32' W 028°37'0 0.0
2017-Dec-26 00:29N 38°32' W 028°37'0 0.0
2017-Dec-25 23:59N 38°32' W 028°37'0 0.0
2017-Dec-25 23:29N 38°32' W 028°37'0 0.0
2017-Dec-25 22:57N 38°32' W 028°37'0 0.0
2017-Dec-25 22:30N 38°32' W 028°37'0 0.0
2017-Dec-25 21:58N 38°32' W 028°37'0 0.0
2017-Dec-25 21:30N 38°32' W 028°37'0 0.0
2017-Dec-25 20:58N 38°32' W 028°37'0 0.0
2017-Dec-25 20:26N 38°32' W 028°37'0 0.0
2017-Dec-25 19:54N 38°32' W 028°37'0 0.0
2017-Dec-25 19:29N 38°32' W 028°37'0 0.0
2017-Dec-25 18:58N 38°32' W 028°37'0 0.0
2017-Dec-25 18:26N 38°32' W 028°37'0 0.0
2017-Dec-25 17:59N 38°32' W 028°37'0 0.0
2017-Dec-25 17:28N 38°32' W 028°37'0 0.0
2017-Dec-25 16:58N 38°32' W 028°37'0 0.0
2017-Dec-25 16:29N 38°32' W 028°37'0 0.0
2017-Dec-25 15:59N 38°32' W 028°37'0 0.0
2017-Dec-25 15:29N 38°32' W 028°37'0 0.0
2017-Dec-25 15:00N 38°32' W 028°37'0 0.0
2017-Dec-25 14:30N 38°32' W 028°37'0 0.0
2017-Dec-25 13:58N 38°32' W 028°37'0 0.0
2017-Dec-25 13:28N 38°32' W 028°37'0 0.0
2017-Dec-25 12:59N 38°32' W 028°37'0 0.0
2017-Dec-25 12:22N 38°32' W 028°37'0 0.0
2017-Dec-25 11:59N 38°32' W 028°37'0 0.0
2017-Dec-25 11:29N 38°32' W 028°37'0 0.0
2017-Dec-25 10:58N 38°32' W 028°37'0 0.0
2017-Dec-25 10:25N 38°32' W 028°37'0 0.0
2017-Dec-25 10:00N 38°32' W 028°37'0 0.0
2017-Dec-25 09:30N 38°32' W 028°37'0 0.0
2017-Dec-25 09:00N 38°32' W 028°37'0 0.0
2017-Dec-25 08:29N 38°32' W 028°37'0 0.0
2017-Dec-25 08:00N 38°32' W 028°37'0 0.0
2017-Dec-25 07:29N 38°32' W 028°37'0 0.0
2017-Dec-25 07:00N 38°32' W 028°37'0 0.0
2017-Dec-25 06:28N 38°32' W 028°37'0 0.0
2017-Dec-25 05:57N 38°32' W 028°37'0 0.0
2017-Dec-25 05:30N 38°32' W 028°37'0 0.0
2017-Dec-25 04:58N 38°32' W 028°37'0 0.0
2017-Dec-25 04:29N 38°32' W 028°37'0 0.0
2017-Dec-25 03:59N 38°32' W 028°37'0 0.0
2017-Dec-25 03:25N 38°32' W 028°37'0 0.0
2017-Dec-25 02:58N 38°32' W 028°37'0 0.0
2017-Dec-25 02:23N 38°32' W 028°37'0 0.0
2017-Dec-25 01:58N 38°32' W 028°37'0 0.0
2017-Dec-25 01:28N 38°32' W 028°37'0 0.0
2017-Dec-25 00:57N 38°32' W 028°37'0 0.0
2017-Dec-25 00:29N 38°32' W 028°37'0 0.0
2017-Dec-25 00:00N 38°32' W 028°37'0 0.0
2017-Dec-24 23:30N 38°32' W 028°37'0 0.0
2017-Dec-24 22:58N 38°32' W 028°37'0 0.0
2017-Dec-24 22:29N 38°32' W 028°37'0 0.0
2017-Dec-24 21:59N 38°32' W 028°37'0 0.0
2017-Dec-24 21:28N 38°32' W 028°37'0 0.0
2017-Dec-24 21:01N 38°32' W 028°37'0 0.0
2017-Dec-24 20:30N 38°32' W 028°37'0 0.0
2017-Dec-24 19:59N 38°32' W 028°37'0 0.0
2017-Dec-24 19:29N 38°32' W 028°37'0 0.0
2017-Dec-24 18:58N 38°32' W 028°37'0 0.0
2017-Dec-24 18:28N 38°32' W 028°37'0 0.0
2017-Dec-24 17:58N 38°32' W 028°37'0 0.0
2017-Dec-24 17:29N 38°32' W 028°37'0 0.0
2017-Dec-24 17:00N 38°32' W 028°37'0 0.0
2017-Dec-24 16:29N 38°32' W 028°37'0 0.0
2017-Dec-24 16:00N 38°32' W 028°37'0 0.0
2017-Dec-24 15:30N 38°32' W 028°37'0 0.0
2017-Dec-24 14:59N 38°32' W 028°37'0 0.0
2017-Dec-24 14:29N 38°32' W 028°37'0 0.0
2017-Dec-24 13:55N 38°32' W 028°37'0 0.0
2017-Dec-24 13:30N 38°32' W 028°37'0 0.0
2017-Dec-24 12:59N 38°32' W 028°37'0 0.0
2017-Dec-24 12:29N 38°32' W 028°37'0 0.0
2017-Dec-24 11:58N 38°32' W 028°37'0 0.0
2017-Dec-24 11:24N 38°32' W 028°37'0 0.0
2017-Dec-24 11:00N 38°32' W 028°37'0 0.0
2017-Dec-24 10:30N 38°32' W 028°37'0 0.0
2017-Dec-24 09:57N 38°32' W 028°37'0 0.0
2017-Dec-24 09:29N 38°32' W 028°37'0 0.0
2017-Dec-24 08:59N 38°32' W 028°37'0 0.0
2017-Dec-24 08:30N 38°32' W 028°37'0 0.0
2017-Dec-24 07:59N 38°32' W 028°37'0 0.0
2017-Dec-24 07:24N 38°32' W 028°37'0 0.0
2017-Dec-24 06:58N 38°32' W 028°37'0 0.0
2017-Dec-24 06:25N 38°32' W 028°37'0 0.0
2017-Dec-24 05:55N 38°32' W 028°37'0 0.0
2017-Dec-24 05:29N 38°32' W 028°37'0 0.0
2017-Dec-24 04:59N 38°32' W 028°37'0 0.0
2017-Dec-24 04:29N 38°32' W 028°37'0 0.0
2017-Dec-24 04:01N 38°32' W 028°37'0 0.0
2017-Dec-24 03:28N 38°32' W 028°37'0 0.0
2017-Dec-24 02:59N 38°32' W 028°37'0 0.0
2017-Dec-24 02:28N 38°32' W 028°37'0 0.0
2017-Dec-24 02:00N 38°32' W 028°37'0 0.0
2017-Dec-24 01:30N 38°32' W 028°37'0 0.0
2017-Dec-24 00:59N 38°32' W 028°37'0 0.0
2017-Dec-24 00:29N 38°32' W 028°37'0 0.0
2017-Dec-23 23:58N 38°32' W 028°37'0 0.0
2017-Dec-23 23:28N 38°32' W 028°37'0 0.0
2017-Dec-23 22:59N 38°32' W 028°37'0 0.0
2017-Dec-23 22:26N 38°32' W 028°37'0 0.0
2017-Dec-23 21:56N 38°32' W 028°37'0 0.0
2017-Dec-23 21:28N 38°32' W 028°37'0 0.0
2017-Dec-23 20:59N 38°32' W 028°37'0 0.0
2017-Dec-23 20:29N 38°32' W 028°37'0 0.0
2017-Dec-23 19:58N 38°32' W 028°37'0 0.0
2017-Dec-23 19:29N 38°32' W 028°37'0 0.0
2017-Dec-23 19:00N 38°32' W 028°37'0 0.0
2017-Dec-23 18:25N 38°32' W 028°37'0 0.0
2017-Dec-23 17:53N 38°32' W 028°37'0 0.0
2017-Dec-23 17:29N 38°32' W 028°37'0 0.0
2017-Dec-23 17:00N 38°32' W 028°37'0 0.0
2017-Dec-23 16:27N 38°32' W 028°37'0 0.0
2017-Dec-23 16:00N 38°32' W 028°37'0 0.0
2017-Dec-23 15:28N 38°32' W 028°37'0 0.0
2017-Dec-23 14:57N 38°32' W 028°37'0 0.0
2017-Dec-23 14:28N 38°32' W 028°37'0 0.0
2017-Dec-23 13:58N 38°32' W 028°37'0 0.0
2017-Dec-23 13:29N 38°32' W 028°37'0 0.0
2017-Dec-23 12:59N 38°32' W 028°37'0 0.0
2017-Dec-23 12:29N 38°32' W 028°37'0 0.0
2017-Dec-23 11:58N 38°32' W 028°37'0 0.0
2017-Dec-23 11:29N 38°32' W 028°37'0 0.0
2017-Dec-23 10:56N 38°32' W 028°37'0 0.0
2017-Dec-23 10:28N 38°32' W 028°37'0 0.0
2017-Dec-23 09:58N 38°32' W 028°37'0 0.0
2017-Dec-23 09:29N 38°32' W 028°37'0 0.0
2017-Dec-23 08:58N 38°32' W 028°37'0 0.0
2017-Dec-23 08:29N 38°32' W 028°37'0 0.0
2017-Dec-23 07:57N 38°32' W 028°37'0 0.0
2017-Dec-23 07:28N 38°32' W 028°37'0 0.0
2017-Dec-23 06:59N 38°32' W 028°37'0 0.0
2017-Dec-23 06:28N 38°32' W 028°37'0 0.0
2017-Dec-23 06:00N 38°32' W 028°37'0 0.0
2017-Dec-23 05:29N 38°32' W 028°37'0 0.0
2017-Dec-23 04:59N 38°32' W 028°37'0 0.0
2017-Dec-23 04:30N 38°32' W 028°37'0 0.0
2017-Dec-23 04:00N 38°32' W 028°37'0 0.0
2017-Dec-23 03:29N 38°32' W 028°37'0 0.0
2017-Dec-23 02:59N 38°32' W 028°37'0 0.0
2017-Dec-23 02:30N 38°32' W 028°37'0 0.0
2017-Dec-23 02:00N 38°32' W 028°37'0 0.0
2017-Dec-23 01:25N 38°32' W 028°37'0 0.0
2017-Dec-23 00:58N 38°32' W 028°37'0 0.0
2017-Dec-23 00:23N 38°32' W 028°37'0 0.0
2017-Dec-23 00:00N 38°32' W 028°37'0 0.0
2017-Dec-22 23:29N 38°32' W 028°37'0 0.0
2017-Dec-22 22:56N 38°32' W 028°37'0 0.0
2017-Dec-22 22:28N 38°32' W 028°37'0 0.0
2017-Dec-22 21:58N 38°32' W 028°37'0 0.0
2017-Dec-22 21:30N 38°32' W 028°37'0 0.0
2017-Dec-22 21:00N 38°32' W 028°37'0 0.0
2017-Dec-22 20:28N 38°32' W 028°37'0 0.0
2017-Dec-22 20:00N 38°32' W 028°37'0 0.0
2017-Dec-22 19:30N 38°32' W 028°37'0 0.0
2017-Dec-22 18:59N 38°32' W 028°37'0 0.0
2017-Dec-22 18:29N 38°32' W 028°37'0 0.0
2017-Dec-22 17:59N 38°32' W 028°37'0 0.0
2017-Dec-22 17:28N 38°32' W 028°37'0 0.0
2017-Dec-22 16:59N 38°32' W 028°37'0 0.0
2017-Dec-22 16:23N 38°32' W 028°37'0 0.0
2017-Dec-22 15:58N 38°32' W 028°37'0 0.0
2017-Dec-22 15:25N 38°32' W 028°37'0 0.0
2017-Dec-22 14:58N 38°32' W 028°37'0 0.0
2017-Dec-22 14:29N 38°32' W 028°37'0 0.0
2017-Dec-22 13:58N 38°32' W 028°37'0 0.0
2017-Dec-22 13:29N 38°32' W 028°37'0 0.0
2017-Dec-22 12:59N 38°32' W 028°37'0 0.0
2017-Dec-22 12:28N 38°32' W 028°37'0 0.0
2017-Dec-22 12:00N 38°32' W 028°37'0 0.0
2017-Dec-22 11:28N 38°32' W 028°37'0 0.0
2017-Dec-22 10:58N 38°32' W 028°37'0 0.0
2017-Dec-22 10:27N 38°32' W 028°37'0 0.0
2017-Dec-22 09:58N 38°32' W 028°37'0 0.0
2017-Dec-22 09:28N 38°32' W 028°37'0 0.0
2017-Dec-22 09:00N 38°32' W 028°37'0 0.0
2017-Dec-22 08:31N 38°32' W 028°37'0 0.0
2017-Dec-22 07:59N 38°32' W 028°37'0 0.0
2017-Dec-22 07:27N 38°32' W 028°37'0 0.0
2017-Dec-22 06:59N 38°32' W 028°37'0 0.0
2017-Dec-22 06:25N 38°32' W 028°37'0 0.0
2017-Dec-22 05:59N 38°32' W 028°37'0 0.0
2017-Dec-22 05:29N 38°32' W 028°37'0 0.0
2017-Dec-22 04:59N 38°32' W 028°37'0 0.0
2017-Dec-22 04:30N 38°32' W 028°37'0 0.0
2017-Dec-22 04:00N 38°32' W 028°37'0 0.0
2017-Dec-22 03:28N 38°32' W 028°37'0 0.0
2017-Dec-22 02:53N 38°32' W 028°37'0 0.0
2017-Dec-22 02:30N 38°32' W 028°37'0 0.0
2017-Dec-22 01:59N 38°32' W 028°37'0 0.0
2017-Dec-22 01:28N 38°32' W 028°37'0 0.0
2017-Dec-22 00:54N 38°32' W 028°37'0 0.0
2017-Dec-22 00:30N 38°32' W 028°37'0 0.0
2017-Dec-22 00:00N 38°32' W 028°37'0 0.0
2017-Dec-21 23:30N 38°32' W 028°37'0 0.0
2017-Dec-21 23:00N 38°32' W 028°37'0 0.0
2017-Dec-21 22:28N 38°32' W 028°37'0 0.0
2017-Dec-21 21:59N 38°32' W 028°37'0 0.0
2017-Dec-21 21:29N 38°32' W 028°37'0 0.0
2017-Dec-21 20:59N 38°32' W 028°37'0 0.0
2017-Dec-21 20:29N 38°32' W 028°37'0 0.0
2017-Dec-21 20:00N 38°32' W 028°37'0 0.0
2017-Dec-21 19:27N 38°32' W 028°37'0 0.0
2017-Dec-21 18:57N 38°32' W 028°37'0 0.0
2017-Dec-21 18:29N 38°32' W 028°37'0 0.0
2017-Dec-21 17:58N 38°32' W 028°37'0 0.0
2017-Dec-21 17:30N 38°32' W 028°37'0 0.0
2017-Dec-21 17:00N 38°32' W 028°37'0 0.0
2017-Dec-21 16:28N 38°32' W 028°37'0 0.0
2017-Dec-21 16:00N 38°32' W 028°37'0 0.0
2017-Dec-21 15:29N 38°32' W 028°37'0 0.2
2017-Dec-21 14:59N 38°32' W 028°37'0 0.0
2017-Dec-21 14:28N 38°32' W 028°37'0 0.0
2017-Dec-21 14:00N 38°32' W 028°37'0 0.0
2017-Dec-21 13:23N 38°32' W 028°37'0 0.0
2017-Dec-21 12:58N 38°32' W 028°37'0 0.0
2017-Dec-21 12:30N 38°32' W 028°37'0 0.0
2017-Dec-21 11:59N 38°32' W 028°37'0 0.0
2017-Dec-21 11:30N 38°32' W 028°37'0 0.0
2017-Dec-21 11:00N 38°32' W 028°37'0 0.0
2017-Dec-21 10:29N 38°32' W 028°37'0 0.0
2017-Dec-21 09:58N 38°32' W 028°37'0 0.0
2017-Dec-21 09:23N 38°32' W 028°37'0 0.0
2017-Dec-21 08:58N 38°32' W 028°37'0 0.0
2017-Dec-21 08:30N 38°32' W 028°37'0 0.0
2017-Dec-21 07:55N 38°32' W 028°37'0 0.0
2017-Dec-21 07:30N 38°32' W 028°37'0 0.0
2017-Dec-21 07:00N 38°32' W 028°37'0 0.0
2017-Dec-21 06:28N 38°32' W 028°37'0 0.0
2017-Dec-21 05:58N 38°32' W 028°37'0 0.0
2017-Dec-21 05:30N 38°32' W 028°37'0 0.0
2017-Dec-21 05:00N 38°32' W 028°37'0 0.0
2017-Dec-21 04:30N 38°32' W 028°37'0 0.0
2017-Dec-21 04:00N 38°32' W 028°37'0 0.0
2017-Dec-21 03:29N 38°32' W 028°37'0 0.0
2017-Dec-21 02:59N 38°32' W 028°37'0 0.0
2017-Dec-21 02:30N 38°32' W 028°37'0 0.0
2017-Dec-21 01:57N 38°32' W 028°37'0 0.0
2017-Dec-21 01:29N 38°32' W 028°37'0 0.0
2017-Dec-21 00:58N 38°32' W 028°37'0 0.0
2017-Dec-21 00:26N 38°32' W 028°37'0 0.0
2017-Dec-20 23:58N 38°32' W 028°37'0 0.0
2017-Dec-20 23:28N 38°32' W 028°37'0 0.0
2017-Dec-20 23:00N 38°32' W 028°37'0 0.0
2017-Dec-20 22:29N 38°32' W 028°37'0 0.0
2017-Dec-20 21:58N 38°32' W 028°37'0 0.0
2017-Dec-20 21:29N 38°32' W 028°37'0 0.0
2017-Dec-20 21:00N 38°32' W 028°37'0 0.0
2017-Dec-20 20:29N 38°32' W 028°37'0 0.0
2017-Dec-20 19:55N 38°32' W 028°37'0 0.0
2017-Dec-20 19:24N 38°32' W 028°37'0 0.0
2017-Dec-20 19:00N 38°32' W 028°37'0 0.0
2017-Dec-20 18:29N 38°32' W 028°37'0 0.0
2017-Dec-20 17:58N 38°32' W 028°37'0 0.0
2017-Dec-20 17:28N 38°32' W 028°37'0 0.0
2017-Dec-20 16:58N 38°32' W 028°37'0 0.0
2017-Dec-20 16:27N 38°32' W 028°37'0 0.0
2017-Dec-20 15:59N 38°32' W 028°37'0 0.0
2017-Dec-20 15:29N 38°32' W 028°37'0 0.0
2017-Dec-20 14:58N 38°32' W 028°37'0 0.0
2017-Dec-20 14:29N 38°32' W 028°37'0 0.0
2017-Dec-20 13:58N 38°32' W 028°37'0 0.0
2017-Dec-20 13:28N 38°32' W 028°37'0 0.0
2017-Dec-20 12:59N 38°32' W 028°37'0 0.0
2017-Dec-20 12:30N 38°32' W 028°37'0 0.0
2017-Dec-20 11:58N 38°32' W 028°37'0 0.0
2017-Dec-20 11:30N 38°32' W 028°37'0 0.0
2017-Dec-20 11:00N 38°32' W 028°37'0 0.0
2017-Dec-20 10:29N 38°32' W 028°37'0 0.0
2017-Dec-20 09:54N 38°32' W 028°37'0 0.0
2017-Dec-20 09:28N 38°32' W 028°37'0 0.0
2017-Dec-20 08:58N 38°32' W 028°37'0 0.0
2017-Dec-20 08:28N 38°32' W 028°37'0 0.0
2017-Dec-20 07:59N 38°32' W 028°37'0 0.0
2017-Dec-20 07:28N 38°32' W 028°37'0 0.0
2017-Dec-20 06:55N 38°32' W 028°37'0 0.0
2017-Dec-20 06:24N 38°32' W 028°37'0 0.0
2017-Dec-20 05:59N 38°32' W 028°37'0 0.0
2017-Dec-20 05:30N 38°32' W 028°37'0 0.0
2017-Dec-20 04:57N 38°32' W 028°37'0 0.0
2017-Dec-20 04:30N 38°32' W 028°37'0 0.0
2017-Dec-20 03:59N 38°32' W 028°37'0 0.0
2017-Dec-20 03:27N 38°32' W 028°37'0 0.0
2017-Dec-20 02:56N 38°32' W 028°37'0 0.0
2017-Dec-20 02:30N 38°32' W 028°37'0 0.0
2017-Dec-20 02:00N 38°32' W 028°37'0 0.0
2017-Dec-20 01:28N 38°32' W 028°37'0 0.0
2017-Dec-20 01:00N 38°32' W 028°37'0 0.0
2017-Dec-20 00:25N 38°32' W 028°37'0 0.0
2017-Dec-20 00:00N 38°32' W 028°37'0 0.0
2017-Dec-19 23:28N 38°32' W 028°37'0 0.0
2017-Dec-19 22:58N 38°32' W 028°37'0 0.0
2017-Dec-19 22:24N 38°32' W 028°37'0 0.0
2017-Dec-19 21:59N 38°32' W 028°37'0 0.0
2017-Dec-19 21:30N 38°32' W 028°37'0 0.0
2017-Dec-19 20:59N 38°32' W 028°37'0 0.0
2017-Dec-19 20:29N 38°32' W 028°37'0 0.0
2017-Dec-19 20:00N 38°32' W 028°37'0 0.0
2017-Dec-19 19:30N 38°32' W 028°37'0 0.0
2017-Dec-19 19:00N 38°32' W 028°37'0 0.0
2017-Dec-19 18:30N 38°32' W 028°37'0 0.0
2017-Dec-19 18:00N 38°32' W 028°37'0 0.0
2017-Dec-19 17:30N 38°32' W 028°37'0 0.0
2017-Dec-19 17:00N 38°32' W 028°37'0 0.0
2017-Dec-19 16:30N 38°32' W 028°37'0 0.0
2017-Dec-19 16:00N 38°32' W 028°37'0 0.0
2017-Dec-19 15:30N 38°32' W 028°37'0 0.0
2017-Dec-19 15:00N 38°32' W 028°37'0 0.0
2017-Dec-19 14:30N 38°32' W 028°37'0 0.0
2017-Dec-19 14:00N 38°32' W 028°37'0 0.0
2017-Dec-19 13:31N 38°32' W 028°37'0 0.0
2017-Dec-19 13:00N 38°32' W 028°37'0 0.0
2017-Dec-19 12:30N 38°32' W 028°37'0 0.0
2017-Dec-19 12:00N 38°32' W 028°37'0 0.0
2017-Dec-19 11:30N 38°32' W 028°37'0 0.0
2017-Dec-19 11:00N 38°32' W 028°37'0 0.0
2017-Dec-19 10:31N 38°32' W 028°37'0 0.0
2017-Dec-19 10:00N 38°32' W 028°37'0 0.0
2017-Dec-19 09:27N 38°32' W 028°37'0 0.0
2017-Dec-19 09:01N 38°32' W 028°37'0 0.0
2017-Dec-19 08:30N 38°32' W 028°37'0 0.0
2017-Dec-19 08:00N 38°32' W 028°37'0 0.0
2017-Dec-19 07:30N 38°32' W 028°37'0 0.0
2017-Dec-19 07:00N 38°32' W 028°37'0 0.0
2017-Dec-19 06:30N 38°32' W 028°37'0 0.0
2017-Dec-19 06:01N 38°32' W 028°37'0 0.0
2017-Dec-19 05:30N 38°32' W 028°37'0 0.0
2017-Dec-19 05:00N 38°32' W 028°37'0 0.0
2017-Dec-19 04:30N 38°32' W 028°37'0 0.0
2017-Dec-19 04:00N 38°32' W 028°37'0 0.0
2017-Dec-19 03:30N 38°32' W 028°37'0 0.0
2017-Dec-19 03:00N 38°32' W 028°37'0 0.0
2017-Dec-19 02:30N 38°32' W 028°37'0 0.0
2017-Dec-19 02:00N 38°32' W 028°37'0 0.0
2017-Dec-19 01:31N 38°32' W 028°37'0 0.0
2017-Dec-19 01:00N 38°32' W 028°37'0 0.0
2017-Dec-19 00:30N 38°32' W 028°37'0 0.0
2017-Dec-19 00:00N 38°32' W 028°37'0 0.0
2017-Dec-18 23:31N 38°32' W 028°37'0 0.0
2017-Dec-18 23:00N 38°32' W 028°37'0 0.0
2017-Dec-18 22:30N 38°32' W 028°37'0 0.0
2017-Dec-18 22:01N 38°32' W 028°37'0 0.0
2017-Dec-18 21:30N 38°32' W 028°37'0 0.0
2017-Dec-18 21:00N 38°32' W 028°37'0 0.0
2017-Dec-18 20:30N 38°32' W 028°37'0 0.0
2017-Dec-18 20:01N 38°32' W 028°37'0 0.3
2017-Dec-18 19:31N 38°32' W 028°37'0 0.0
2017-Dec-18 19:00N 38°32' W 028°37'0 0.0
2017-Dec-18 18:30N 38°32' W 028°37'0 0.0
2017-Dec-18 18:00N 38°32' W 028°37'0 0.0
2017-Dec-18 17:31N 38°32' W 028°37'0 0.0
2017-Dec-18 17:00N 38°32' W 028°37'0 0.0
2017-Dec-18 16:29N 38°32' W 028°37'0 0.0
2017-Dec-18 16:00N 38°32' W 028°37'0 0.0
2017-Dec-18 15:30N 38°32' W 028°37'1 1.3
2017-Dec-18 15:00N 38°31' W 028°37'4 7.0
2017-Dec-18 14:30N 38°28' W 028°37'0 1.0
2017-Dec-18 14:00N 38°27' W 028°37'2 4.9
2017-Dec-18 13:30N 38°27' W 028°41'3 5.1
2017-Dec-18 13:00N 38°27' W 028°44'3 5.7
2017-Dec-18 12:30N 38°27' W 028°47'4 7.9
2017-Dec-18 12:00N 38°26' W 028°52'4 8.3
2017-Dec-18 11:30N 38°25' W 028°57'4 8.4
2017-Dec-18 11:00N 38°23' W 029°02'4 8.5
2017-Dec-18 10:30N 38°22' W 029°07'4 8.2
2017-Dec-18 10:00N 38°20' W 029°12'4 7.9
2017-Dec-18 09:30N 38°19' W 029°17'4 8.0
2017-Dec-18 09:00N 38°18' W 029°22'4 8.0
2017-Dec-18 08:30N 38°16' W 029°27'4 7.7
2017-Dec-18 08:00N 38°15' W 029°31'4 8.0
2017-Dec-18 07:30N 38°14' W 029°36'4 8.3
2017-Dec-18 07:00N 38°13' W 029°41'4 8.2
2017-Dec-18 06:30N 38°11' W 029°46'4 8.0
2017-Dec-18 06:00N 38°10' W 029°51'4 7.9
2017-Dec-18 05:30N 38°09' W 029°56'4 7.8
2017-Dec-18 05:00N 38°07' W 030°00'4 8.0
2017-Dec-18 04:30N 38°06' W 030°05'4 8.2
2017-Dec-18 04:00N 38°04' W 030°10'  
Track history (hours):
 
Tides and Currents Weather Stations Pressure Air Temp Water Temp Dewpoint Dewpoint Depression Visibility Wind Speed Wind Dir Waves Ship Positions

Manuel Alba

Last reported at 2017-Dec-27 21:33 UTC. Time now 2018-Jan-18 02:26 UTC.
Position N 38°14' W 029°47'.
Warning: this ship's position is 21 days out of date.

Length 32 m; draft 3.8 m.

Type: Fishing. MMSI: 224052370.

Date/timePositionNaut miles runAvg speedWind from/ knotsBaromVisibWave heightAir tempDewpointWater temp
2017-Dec-27 21:33N 38°14' W 029°47'1 6.9
2017-Dec-27 21:23N 38°14' W 029°46'3 7.0
2017-Dec-27 21:00N 38°15' W 029°43'4 7.0
2017-Dec-27 20:30N 38°16' W 029°38'4 7.1
2017-Dec-27 20:01N 38°17' W 029°34'3 6.9
2017-Dec-27 19:30N 38°19' W 029°30'4 7.1
2017-Dec-27 19:00N 38°20' W 029°26'4 7.1
2017-Dec-27 18:30N 38°21' W 029°21'3 7.0
2017-Dec-27 18:00N 38°22' W 029°17'4 7.1
2017-Dec-27 17:30N 38°23' W 029°13'4 7.1
2017-Dec-27 17:00N 38°24' W 029°08'4 7.3
2017-Dec-27 16:30N 38°24' W 029°04'4 7.6
2017-Dec-27 16:00N 38°25' W 028°59'4 7.7
2017-Dec-27 15:30N 38°26' W 028°54'4 7.8
2017-Dec-27 15:00N 38°27' W 028°49'4 7.7
2017-Dec-27 14:30N 38°28' W 028°45'4 7.9
2017-Dec-27 14:00N 38°29' W 028°40'3 6.4
2017-Dec-27 13:30N 38°32' W 028°37'0 0.9
2017-Dec-27 13:00N 38°32' W 028°37'0 0.0
2017-Dec-27 12:30N 38°32' W 028°37'0 0.0
2017-Dec-27 12:00N 38°32' W 028°37'0 0.0
2017-Dec-27 11:26N 38°32' W 028°37'0 0.0
2017-Dec-27 10:59N 38°32' W 028°37'0 0.0
2017-Dec-27 10:29N 38°32' W 028°37'0 0.0
2017-Dec-27 10:00N 38°32' W 028°37'0 0.0
2017-Dec-27 09:21N 38°32' W 028°37'0 0.0
2017-Dec-27 08:58N 38°32' W 028°37'0 0.0
2017-Dec-27 08:30N 38°32' W 028°37'0 0.0
2017-Dec-27 07:58N 38°32' W 028°37'0 0.0
2017-Dec-27 07:28N 38°32' W 028°37'0 0.0
2017-Dec-27 06:59N 38°32' W 028°37'0 0.0
2017-Dec-27 06:30N 38°32' W 028°37'0 0.0
2017-Dec-27 05:58N 38°32' W 028°37'0 0.0
2017-Dec-27 05:29N 38°32' W 028°37'0 0.0
2017-Dec-27 05:00N 38°32' W 028°37'0 0.0
2017-Dec-27 04:30N 38°32' W 028°37'0 0.0
2017-Dec-27 03:56N 38°32' W 028°37'0 0.0
2017-Dec-27 03:26N 38°32' W 028°37'0 0.0
2017-Dec-27 02:58N 38°32' W 028°37'0 0.0
2017-Dec-27 02:30N 38°32' W 028°37'0 0.0
2017-Dec-27 01:59N 38°32' W 028°37'0 0.0
2017-Dec-27 01:28N 38°32' W 028°37'0 0.0
2017-Dec-27 00:59N 38°32' W 028°37'0 0.0
2017-Dec-27 00:29N 38°32' W 028°37'0 0.0
2017-Dec-26 23:58N 38°32' W 028°37'0 0.0
2017-Dec-26 23:27N 38°32' W 028°37'0 0.0
2017-Dec-26 23:00N 38°32' W 028°37'0 0.0
2017-Dec-26 22:30N 38°32' W 028°37'0 0.0
2017-Dec-26 22:00N 38°32' W 028°37'0 0.0
2017-Dec-26 21:27N 38°32' W 028°37'0 0.0
2017-Dec-26 20:59N 38°32' W 028°37'0 0.0
2017-Dec-26 20:30N 38°32' W 028°37'0 0.0
2017-Dec-26 20:00N 38°32' W 028°37'0 0.0
2017-Dec-26 19:29N 38°32' W 028°37'0 0.0
2017-Dec-26 19:01N 38°32' W 028°37'0 0.0
2017-Dec-26 18:30N 38°32' W 028°37'0 0.0
2017-Dec-26 18:00N 38°32' W 028°37'0 0.1
2017-Dec-26 17:29N 38°32' W 028°37'0 0.0
2017-Dec-26 16:57N 38°32' W 028°37'0 0.0
2017-Dec-26 16:29N 38°32' W 028°37'0 0.0
2017-Dec-26 15:59N 38°32' W 028°37'0 0.0
2017-Dec-26 15:24N 38°32' W 028°37'0 0.0
2017-Dec-26 15:00N 38°32' W 028°37'0 0.0
2017-Dec-26 14:29N 38°32' W 028°37'0 0.0
2017-Dec-26 13:56N 38°32' W 028°37'0 0.0
2017-Dec-26 13:29N 38°32' W 028°37'0 0.0
2017-Dec-26 13:00N 38°32' W 028°37'0 0.0
2017-Dec-26 12:29N 38°32' W 028°37'0 0.0
2017-Dec-26 11:56N 38°32' W 028°37'0 0.0
2017-Dec-26 11:29N 38°32' W 028°37'0 0.0
2017-Dec-26 10:59N 38°32' W 028°37'0 0.0
2017-Dec-26 10:28N 38°32' W 028°37'0 0.0
2017-Dec-26 10:00N 38°32' W 028°37'0 0.0
2017-Dec-26 09:30N 38°32' W 028°37'0 0.0
2017-Dec-26 08:56N 38°32' W 028°37'0 0.0
2017-Dec-26 08:28N 38°32' W 028°37'0 0.0
2017-Dec-26 07:58N 38°32' W 028°37'0 0.0
2017-Dec-26 07:29N 38°32' W 028°37'0 0.0
2017-Dec-26 06:58N 38°32' W 028°37'0 0.0
2017-Dec-26 06:30N 38°32' W 028°37'0 0.0
2017-Dec-26 05:53N 38°32' W 028°37'0 0.0
2017-Dec-26 05:29N 38°32' W 028°37'0 0.0
2017-Dec-26 05:00N 38°32' W 028°37'0 0.0
2017-Dec-26 04:29N 38°32' W 028°37'0 0.0
2017-Dec-26 04:00N 38°32' W 028°37'0 0.0
2017-Dec-26 03:29N 38°32' W 028°37'0 0.0
2017-Dec-26 02:59N 38°32' W 028°37'0 0.0
2017-Dec-26 02:26N 38°32' W 028°37'0 0.0
2017-Dec-26 01:58N 38°32' W 028°37'0 0.0
2017-Dec-26 01:29N 38°32' W 028°37'0 0.0
2017-Dec-26 00:59N 38°32' W 028°37'0 0.0
2017-Dec-26 00:29N 38°32' W 028°37'0 0.0
2017-Dec-25 23:59N 38°32' W 028°37'0 0.0
2017-Dec-25 23:29N 38°32' W 028°37'0 0.0
2017-Dec-25 22:57N 38°32' W 028°37'0 0.0
2017-Dec-25 22:30N 38°32' W 028°37'0 0.0
2017-Dec-25 21:58N 38°32' W 028°37'0 0.0
2017-Dec-25 21:30N 38°32' W 028°37'0 0.0
2017-Dec-25 20:58N 38°32' W 028°37'0 0.0
2017-Dec-25 20:26N 38°32' W 028°37'0 0.0
2017-Dec-25 19:54N 38°32' W 028°37'0 0.0
2017-Dec-25 19:29N 38°32' W 028°37'0 0.0
2017-Dec-25 18:58N 38°32' W 028°37'0 0.0
2017-Dec-25 18:26N 38°32' W 028°37'0 0.0
2017-Dec-25 17:59N 38°32' W 028°37'0 0.0
2017-Dec-25 17:28N 38°32' W 028°37'0 0.0
2017-Dec-25 16:58N 38°32' W 028°37'0 0.0
2017-Dec-25 16:29N 38°32' W 028°37'0 0.0
2017-Dec-25 15:59N 38°32' W 028°37'0 0.0
2017-Dec-25 15:29N 38°32' W 028°37'0 0.0
2017-Dec-25 15:00N 38°32' W 028°37'0 0.0
2017-Dec-25 14:30N 38°32' W 028°37'0 0.0
2017-Dec-25 13:58N 38°32' W 028°37'0 0.0
2017-Dec-25 13:28N 38°32' W 028°37'0 0.0
2017-Dec-25 12:59N 38°32' W 028°37'0 0.0
2017-Dec-25 12:22N 38°32' W 028°37'0 0.0
2017-Dec-25 11:59N 38°32' W 028°37'0 0.0
2017-Dec-25 11:29N 38°32' W 028°37'0 0.0
2017-Dec-25 10:58N 38°32' W 028°37'0 0.0
2017-Dec-25 10:25N 38°32' W 028°37'0 0.0
2017-Dec-25 10:00N 38°32' W 028°37'0 0.0
2017-Dec-25 09:30N 38°32' W 028°37'0 0.0
2017-Dec-25 09:00N 38°32' W 028°37'0 0.0
2017-Dec-25 08:29N 38°32' W 028°37'0 0.0
2017-Dec-25 08:00N 38°32' W 028°37'0 0.0
2017-Dec-25 07:29N 38°32' W 028°37'0 0.0
2017-Dec-25 07:00N 38°32' W 028°37'0 0.0
2017-Dec-25 06:28N 38°32' W 028°37'0 0.0
2017-Dec-25 05:57N 38°32' W 028°37'0 0.0
2017-Dec-25 05:30N 38°32' W 028°37'0 0.0
2017-Dec-25 04:58N 38°32' W 028°37'0 0.0
2017-Dec-25 04:29N 38°32' W 028°37'0 0.0
2017-Dec-25 03:59N 38°32' W 028°37'0 0.0
2017-Dec-25 03:25N 38°32' W 028°37'0 0.0
2017-Dec-25 02:58N 38°32' W 028°37'0 0.0
2017-Dec-25 02:23N 38°32' W 028°37'0 0.0
2017-Dec-25 01:58N 38°32' W 028°37'0 0.0
2017-Dec-25 01:28N 38°32' W 028°37'0 0.0
2017-Dec-25 00:57N 38°32' W 028°37'0 0.0
2017-Dec-25 00:29N 38°32' W 028°37'0 0.0
2017-Dec-25 00:00N 38°32' W 028°37'0 0.0
2017-Dec-24 23:30N 38°32' W 028°37'0 0.0
2017-Dec-24 22:58N 38°32' W 028°37'0 0.0
2017-Dec-24 22:29N 38°32' W 028°37'0 0.0
2017-Dec-24 21:59N 38°32' W 028°37'0 0.0
2017-Dec-24 21:28N 38°32' W 028°37'0 0.0
2017-Dec-24 21:01N 38°32' W 028°37'0 0.0
2017-Dec-24 20:30N 38°32' W 028°37'0 0.0
2017-Dec-24 19:59N 38°32' W 028°37'0 0.0
2017-Dec-24 19:29N 38°32' W 028°37'0 0.0
2017-Dec-24 18:58N 38°32' W 028°37'0 0.0
2017-Dec-24 18:28N 38°32' W 028°37'0 0.0
2017-Dec-24 17:58N 38°32' W 028°37'0 0.0
2017-Dec-24 17:29N 38°32' W 028°37'0 0.0
2017-Dec-24 17:00N 38°32' W 028°37'0 0.0
2017-Dec-24 16:29N 38°32' W 028°37'0 0.0
2017-Dec-24 16:00N 38°32' W 028°37'0 0.0
2017-Dec-24 15:30N 38°32' W 028°37'0 0.0
2017-Dec-24 14:59N 38°32' W 028°37'0 0.0
2017-Dec-24 14:29N 38°32' W 028°37'0 0.0
2017-Dec-24 13:55N 38°32' W 028°37'0 0.0
2017-Dec-24 13:30N 38°32' W 028°37'0 0.0
2017-Dec-24 12:59N 38°32' W 028°37'0 0.0
2017-Dec-24 12:29N 38°32' W 028°37'0 0.0
2017-Dec-24 11:58N 38°32' W 028°37'0 0.0
2017-Dec-24 11:24N 38°32' W 028°37'0 0.0
2017-Dec-24 11:00N 38°32' W 028°37'0 0.0
2017-Dec-24 10:30N 38°32' W 028°37'0 0.0
2017-Dec-24 09:57N 38°32' W 028°37'0 0.0
2017-Dec-24 09:29N 38°32' W 028°37'0 0.0
2017-Dec-24 08:59N 38°32' W 028°37'0 0.0
2017-Dec-24 08:30N 38°32' W 028°37'0 0.0
2017-Dec-24 07:59N 38°32' W 028°37'0 0.0
2017-Dec-24 07:24N 38°32' W 028°37'0 0.0
2017-Dec-24 06:58N 38°32' W 028°37'0 0.0
2017-Dec-24 06:25N 38°32' W 028°37'0 0.0
2017-Dec-24 05:55N 38°32' W 028°37'0 0.0
2017-Dec-24 05:29N 38°32' W 028°37'0 0.0
2017-Dec-24 04:59N 38°32' W 028°37'0 0.0
2017-Dec-24 04:29N 38°32' W 028°37'0 0.0
2017-Dec-24 04:01N 38°32' W 028°37'0 0.0
2017-Dec-24 03:28N 38°32' W 028°37'0 0.0
2017-Dec-24 02:59N 38°32' W 028°37'0 0.0
2017-Dec-24 02:28N 38°32' W 028°37'0 0.0
2017-Dec-24 02:00N 38°32' W 028°37'0 0.0
2017-Dec-24 01:30N 38°32' W 028°37'0 0.0
2017-Dec-24 00:59N 38°32' W 028°37'0 0.0
2017-Dec-24 00:29N 38°32' W 028°37'0 0.0
2017-Dec-23 23:58N 38°32' W 028°37'0 0.0
2017-Dec-23 23:28N 38°32' W 028°37'0 0.0
2017-Dec-23 22:59N 38°32' W 028°37'0 0.0
2017-Dec-23 22:26N 38°32' W 028°37'0 0.0
2017-Dec-23 21:56N 38°32' W 028°37'0 0.0
2017-Dec-23 21:28N 38°32' W 028°37'0 0.0
2017-Dec-23 20:59N 38°32' W 028°37'0 0.0
2017-Dec-23 20:29N 38°32' W 028°37'0 0.0
2017-Dec-23 19:58N 38°32' W 028°37'0 0.0
2017-Dec-23 19:29N 38°32' W 028°37'0 0.0
2017-Dec-23 19:00N 38°32' W 028°37'0 0.0
2017-Dec-23 18:25N 38°32' W 028°37'0 0.0
2017-Dec-23 17:53N 38°32' W 028°37'0 0.0
2017-Dec-23 17:29N 38°32' W 028°37'0 0.0
2017-Dec-23 17:00N 38°32' W 028°37'0 0.0
2017-Dec-23 16:27N 38°32' W 028°37'0 0.0
2017-Dec-23 16:00N 38°32' W 028°37'0 0.0
2017-Dec-23 15:28N 38°32' W 028°37'0 0.0
2017-Dec-23 14:57N 38°32' W 028°37'0 0.0
2017-Dec-23 14:28N 38°32' W 028°37'0 0.0
2017-Dec-23 13:58N 38°32' W 028°37'0 0.0
2017-Dec-23 13:29N 38°32' W 028°37'0 0.0
2017-Dec-23 12:59N 38°32' W 028°37'0 0.0
2017-Dec-23 12:29N 38°32' W 028°37'0 0.0
2017-Dec-23 11:58N 38°32' W 028°37'0 0.0
2017-Dec-23 11:29N 38°32' W 028°37'0 0.0
2017-Dec-23 10:56N 38°32' W 028°37'0 0.0
2017-Dec-23 10:28N 38°32' W 028°37'0 0.0
2017-Dec-23 09:58N 38°32' W 028°37'0 0.0
2017-Dec-23 09:29N 38°32' W 028°37'0 0.0
2017-Dec-23 08:58N 38°32' W 028°37'0 0.0
2017-Dec-23 08:29N 38°32' W 028°37'0 0.0
2017-Dec-23 07:57N 38°32' W 028°37'0 0.0
2017-Dec-23 07:28N 38°32' W 028°37'0 0.0
2017-Dec-23 06:59N 38°32' W 028°37'0 0.0
2017-Dec-23 06:28N 38°32' W 028°37'0 0.0
2017-Dec-23 06:00N 38°32' W 028°37'0 0.0
2017-Dec-23 05:29N 38°32' W 028°37'0 0.0
2017-Dec-23 04:59N 38°32' W 028°37'0 0.0
2017-Dec-23 04:30N 38°32' W 028°37'0 0.0
2017-Dec-23 04:00N 38°32' W 028°37'0 0.0
2017-Dec-23 03:29N 38°32' W 028°37'0 0.0
2017-Dec-23 02:59N 38°32' W 028°37'0 0.0
2017-Dec-23 02:30N 38°32' W 028°37'0 0.0
2017-Dec-23 02:00N 38°32' W 028°37'0 0.0
2017-Dec-23 01:25N 38°32' W 028°37'0 0.0
2017-Dec-23 00:58N 38°32' W 028°37'0 0.0
2017-Dec-23 00:23N 38°32' W 028°37'0 0.0
2017-Dec-23 00:00N 38°32' W 028°37'0 0.0
2017-Dec-22 23:29N 38°32' W 028°37'0 0.0
2017-Dec-22 22:56N 38°32' W 028°37'0 0.0
2017-Dec-22 22:28N 38°32' W 028°37'0 0.0
2017-Dec-22 21:58N 38°32' W 028°37'0 0.0
2017-Dec-22 21:30N 38°32' W 028°37'0 0.0
2017-Dec-22 21:00N 38°32' W 028°37'0 0.0
2017-Dec-22 20:28N 38°32' W 028°37'0 0.0
2017-Dec-22 20:00N 38°32' W 028°37'0 0.0
2017-Dec-22 19:30N 38°32' W 028°37'0 0.0
2017-Dec-22 18:59N 38°32' W 028°37'0 0.0
2017-Dec-22 18:29N 38°32' W 028°37'0 0.0
2017-Dec-22 17:59N 38°32' W 028°37'0 0.0
2017-Dec-22 17:28N 38°32' W 028°37'0 0.0
2017-Dec-22 16:59N 38°32' W 028°37'0 0.0
2017-Dec-22 16:23N 38°32' W 028°37'0 0.0
2017-Dec-22 15:58N 38°32' W 028°37'0 0.0
2017-Dec-22 15:25N 38°32' W 028°37'0 0.0
2017-Dec-22 14:58N 38°32' W 028°37'0 0.0
2017-Dec-22 14:29N 38°32' W 028°37'0 0.0
2017-Dec-22 13:58N 38°32' W 028°37'0 0.0
2017-Dec-22 13:29N 38°32' W 028°37'0 0.0
2017-Dec-22 12:59N 38°32' W 028°37'0 0.0
2017-Dec-22 12:28N 38°32' W 028°37'0 0.0
2017-Dec-22 12:00N 38°32' W 028°37'0 0.0
2017-Dec-22 11:28N 38°32' W 028°37'0 0.0
2017-Dec-22 10:58N 38°32' W 028°37'0 0.0
2017-Dec-22 10:27N 38°32' W 028°37'0 0.0
2017-Dec-22 09:58N 38°32' W 028°37'0 0.0
2017-Dec-22 09:28N 38°32' W 028°37'0 0.0
2017-Dec-22 09:00N 38°32' W 028°37'0 0.0
2017-Dec-22 08:31N 38°32' W 028°37'0 0.0
2017-Dec-22 07:59N 38°32' W 028°37'0 0.0
2017-Dec-22 07:27N 38°32' W 028°37'0 0.0
2017-Dec-22 06:59N 38°32' W 028°37'0 0.0
2017-Dec-22 06:25N 38°32' W 028°37'0 0.0
2017-Dec-22 05:59N 38°32' W 028°37'0 0.0
2017-Dec-22 05:29N 38°32' W 028°37'0 0.0
2017-Dec-22 04:59N 38°32' W 028°37'0 0.0
2017-Dec-22 04:30N 38°32' W 028°37'0 0.0
2017-Dec-22 04:00N 38°32' W 028°37'0 0.0
2017-Dec-22 03:28N 38°32' W 028°37'0 0.0
2017-Dec-22 02:53N 38°32' W 028°37'0 0.0
2017-Dec-22 02:30N 38°32' W 028°37'0 0.0
2017-Dec-22 01:59N 38°32' W 028°37'0 0.0
2017-Dec-22 01:28N 38°32' W 028°37'0 0.0
2017-Dec-22 00:54N 38°32' W 028°37'0 0.0
2017-Dec-22 00:30N 38°32' W 028°37'0 0.0
2017-Dec-22 00:00N 38°32' W 028°37'0 0.0
2017-Dec-21 23:30N 38°32' W 028°37'0 0.0
2017-Dec-21 23:00N 38°32' W 028°37'0 0.0
2017-Dec-21 22:28N 38°32' W 028°37'0 0.0
2017-Dec-21 21:59N 38°32' W 028°37'0 0.0
2017-Dec-21 21:29N 38°32' W 028°37'0 0.0
2017-Dec-21 20:59N 38°32' W 028°37'0 0.0
2017-Dec-21 20:29N 38°32' W 028°37'0 0.0
2017-Dec-21 20:00N 38°32' W 028°37'0 0.0
2017-Dec-21 19:27N 38°32' W 028°37'0 0.0
2017-Dec-21 18:57N 38°32' W 028°37'0 0.0
2017-Dec-21 18:29N 38°32' W 028°37'0 0.0
2017-Dec-21 17:58N 38°32' W 028°37'0 0.0
2017-Dec-21 17:30N 38°32' W 028°37'0 0.0
2017-Dec-21 17:00N 38°32' W 028°37'0 0.0
2017-Dec-21 16:28N 38°32' W 028°37'0 0.0
2017-Dec-21 16:00N 38°32' W 028°37'0 0.0
2017-Dec-21 15:29N 38°32' W 028°37'0 0.2
2017-Dec-21 14:59N 38°32' W 028°37'0 0.0
2017-Dec-21 14:28N 38°32' W 028°37'0 0.0
2017-Dec-21 14:00N 38°32' W 028°37'0 0.0
2017-Dec-21 13:23N 38°32' W 028°37'0 0.0
2017-Dec-21 12:58N 38°32' W 028°37'0 0.0
2017-Dec-21 12:30N 38°32' W 028°37'0 0.0
2017-Dec-21 11:59N 38°32' W 028°37'0 0.0
2017-Dec-21 11:30N 38°32' W 028°37'0 0.0
2017-Dec-21 11:00N 38°32' W 028°37'0 0.0
2017-Dec-21 10:29N 38°32' W 028°37'0 0.0
2017-Dec-21 09:58N 38°32' W 028°37'0 0.0
2017-Dec-21 09:23N 38°32' W 028°37'0 0.0
2017-Dec-21 08:58N 38°32' W 028°37'0 0.0
2017-Dec-21 08:30N 38°32' W 028°37'0 0.0
2017-Dec-21 07:55N 38°32' W 028°37'0 0.0
2017-Dec-21 07:30N 38°32' W 028°37'0 0.0
2017-Dec-21 07:00N 38°32' W 028°37'0 0.0
2017-Dec-21 06:28N 38°32' W 028°37'0 0.0
2017-Dec-21 05:58N 38°32' W 028°37'0 0.0
2017-Dec-21 05:30N 38°32' W 028°37'0 0.0
2017-Dec-21 05:00N 38°32' W 028°37'0 0.0
2017-Dec-21 04:30N 38°32' W 028°37'0 0.0
2017-Dec-21 04:00N 38°32' W 028°37'0 0.0
2017-Dec-21 03:29N 38°32' W 028°37'0 0.0
2017-Dec-21 02:59N 38°32' W 028°37'0 0.0
2017-Dec-21 02:30N 38°32' W 028°37'0 0.0
2017-Dec-21 01:57N 38°32' W 028°37'0 0.0
2017-Dec-21 01:29N 38°32' W 028°37'0 0.0
2017-Dec-21 00:58N 38°32' W 028°37'0 0.0
2017-Dec-21 00:26N 38°32' W 028°37'0 0.0
2017-Dec-20 23:58N 38°32' W 028°37'0 0.0
2017-Dec-20 23:28N 38°32' W 028°37'0 0.0
2017-Dec-20 23:00N 38°32' W 028°37'0 0.0
2017-Dec-20 22:29N 38°32' W 028°37'0 0.0
2017-Dec-20 21:58N 38°32' W 028°37'0 0.0
2017-Dec-20 21:29N 38°32' W 028°37'0 0.0
2017-Dec-20 21:00N 38°32' W 028°37'0 0.0
2017-Dec-20 20:29N 38°32' W 028°37'0 0.0
2017-Dec-20 19:55N 38°32' W 028°37'0 0.0
2017-Dec-20 19:24N 38°32' W 028°37'0 0.0
2017-Dec-20 19:00N 38°32' W 028°37'0 0.0
2017-Dec-20 18:29N 38°32' W 028°37'0 0.0
2017-Dec-20 17:58N 38°32' W 028°37'0 0.0
2017-Dec-20 17:28N 38°32' W 028°37'0 0.0
2017-Dec-20 16:58N 38°32' W 028°37'0 0.0
2017-Dec-20 16:27N 38°32' W 028°37'0 0.0
2017-Dec-20 15:59N 38°32' W 028°37'0 0.0
2017-Dec-20 15:29N 38°32' W 028°37'0 0.0
2017-Dec-20 14:58N 38°32' W 028°37'0 0.0
2017-Dec-20 14:29N 38°32' W 028°37'0 0.0
2017-Dec-20 13:58N 38°32' W 028°37'0 0.0
2017-Dec-20 13:28N 38°32' W 028°37'0 0.0
2017-Dec-20 12:59N 38°32' W 028°37'0 0.0
2017-Dec-20 12:30N 38°32' W 028°37'0 0.0
2017-Dec-20 11:58N 38°32' W 028°37'0 0.0
2017-Dec-20 11:30N 38°32' W 028°37'0 0.0
2017-Dec-20 11:00N 38°32' W 028°37'0 0.0
2017-Dec-20 10:29N 38°32' W 028°37'0 0.0
2017-Dec-20 09:54N 38°32' W 028°37'0 0.0
2017-Dec-20 09:28N 38°32' W 028°37'0 0.0
2017-Dec-20 08:58N 38°32' W 028°37'0 0.0
2017-Dec-20 08:28N 38°32' W 028°37'0 0.0
2017-Dec-20 07:59N 38°32' W 028°37'0 0.0
2017-Dec-20 07:28N 38°32' W 028°37'0 0.0
2017-Dec-20 06:55N 38°32' W 028°37'0 0.0
2017-Dec-20 06:24N 38°32' W 028°37'0 0.0
2017-Dec-20 05:59N 38°32' W 028°37'0 0.0
2017-Dec-20 05:30N 38°32' W 028°37'0 0.0
2017-Dec-20 04:57N 38°32' W 028°37'0 0.0
2017-Dec-20 04:30N 38°32' W 028°37'0 0.0
2017-Dec-20 03:59N 38°32' W 028°37'0 0.0
2017-Dec-20 03:27N 38°32' W 028°37'0 0.0
2017-Dec-20 02:56N 38°32' W 028°37'0 0.0
2017-Dec-20 02:30N 38°32' W 028°37'0 0.0
2017-Dec-20 02:00N 38°32' W 028°37'0 0.0
2017-Dec-20 01:28N 38°32' W 028°37'0 0.0
2017-Dec-20 01:00N 38°32' W 028°37'0 0.0
2017-Dec-20 00:25N 38°32' W 028°37'0 0.0
2017-Dec-20 00:00N 38°32' W 028°37'0 0.0
2017-Dec-19 23:28N 38°32' W 028°37'0 0.0
2017-Dec-19 22:58N 38°32' W 028°37'0 0.0
2017-Dec-19 22:24N 38°32' W 028°37'0 0.0
2017-Dec-19 21:59N 38°32' W 028°37'0 0.0
2017-Dec-19 21:30N 38°32' W 028°37'0 0.0
2017-Dec-19 20:59N 38°32' W 028°37'0 0.0
2017-Dec-19 20:29N 38°32' W 028°37'0 0.0
2017-Dec-19 20:00N 38°32' W 028°37'0 0.0
2017-Dec-19 19:30N 38°32' W 028°37'0 0.0
2017-Dec-19 19:00N 38°32' W 028°37'0 0.0
2017-Dec-19 18:30N 38°32' W 028°37'0 0.0
2017-Dec-19 18:00N 38°32' W 028°37'0 0.0
2017-Dec-19 17:30N 38°32' W 028°37'0 0.0
2017-Dec-19 17:00N 38°32' W 028°37'0 0.0
2017-Dec-19 16:30N 38°32' W 028°37'0 0.0
2017-Dec-19 16:00N 38°32' W 028°37'0 0.0
2017-Dec-19 15:30N 38°32' W 028°37'0 0.0
2017-Dec-19 15:00N 38°32' W 028°37'0 0.0
2017-Dec-19 14:30N 38°32' W 028°37'0 0.0
2017-Dec-19 14:00N 38°32' W 028°37'0 0.0
2017-Dec-19 13:31N 38°32' W 028°37'0 0.0
2017-Dec-19 13:00N 38°32' W 028°37'0 0.0
2017-Dec-19 12:30N 38°32' W 028°37'0 0.0
2017-Dec-19 12:00N 38°32' W 028°37'0 0.0
2017-Dec-19 11:30N 38°32' W 028°37'0 0.0
2017-Dec-19 11:00N 38°32' W 028°37'0 0.0
2017-Dec-19 10:31N 38°32' W 028°37'0 0.0
2017-Dec-19 10:00N 38°32' W 028°37'0 0.0
2017-Dec-19 09:27N 38°32' W 028°37'0 0.0
2017-Dec-19 09:01N 38°32' W 028°37'0 0.0
2017-Dec-19 08:30N 38°32' W 028°37'0 0.0
2017-Dec-19 08:00N 38°32' W 028°37'0 0.0
2017-Dec-19 07:30N 38°32' W 028°37'0 0.0
2017-Dec-19 07:00N 38°32' W 028°37'0 0.0
2017-Dec-19 06:30N 38°32' W 028°37'0 0.0
2017-Dec-19 06:01N 38°32' W 028°37'0 0.0
2017-Dec-19 05:30N 38°32' W 028°37'0 0.0
2017-Dec-19 05:00N 38°32' W 028°37'0 0.0
2017-Dec-19 04:30N 38°32' W 028°37'0 0.0
2017-Dec-19 04:00N 38°32' W 028°37'0 0.0
2017-Dec-19 03:30N 38°32' W 028°37'0 0.0
2017-Dec-19 03:00N 38°32' W 028°37'0 0.0
2017-Dec-19 02:30N 38°32' W 028°37'0 0.0
2017-Dec-19 02:00N 38°32' W 028°37'0 0.0
2017-Dec-19 01:31N 38°32' W 028°37'0 0.0
2017-Dec-19 01:00N 38°32' W 028°37'0 0.0
2017-Dec-19 00:30N 38°32' W 028°37'0 0.0
2017-Dec-19 00:00N 38°32' W 028°37'0 0.0
2017-Dec-18 23:31N 38°32' W 028°37'0 0.0
2017-Dec-18 23:00N 38°32' W 028°37'0 0.0
2017-Dec-18 22:30N 38°32' W 028°37'0 0.0
2017-Dec-18 22:01N 38°32' W 028°37'0 0.0
2017-Dec-18 21:30N 38°32' W 028°37'0 0.0
2017-Dec-18 21:00N 38°32' W 028°37'0 0.0
2017-Dec-18 20:30N 38°32' W 028°37'0 0.0
2017-Dec-18 20:01N 38°32' W 028°37'0 0.3
2017-Dec-18 19:31N 38°32' W 028°37'0 0.0
2017-Dec-18 19:00N 38°32' W 028°37'0 0.0
2017-Dec-18 18:30N 38°32' W 028°37'0 0.0
2017-Dec-18 18:00N 38°32' W 028°37'0 0.0
2017-Dec-18 17:31N 38°32' W 028°37'0 0.0
2017-Dec-18 17:00N 38°32' W 028°37'0 0.0
2017-Dec-18 16:29N 38°32' W 028°37'0 0.0
2017-Dec-18 16:00N 38°32' W 028°37'0 0.0
2017-Dec-18 15:30N 38°32' W 028°37'1 1.3
2017-Dec-18 15:00N 38°31' W 028°37'4 7.0
2017-Dec-18 14:30N 38°28' W 028°37'0 1.0
2017-Dec-18 14:00N 38°27' W 028°37'2 4.9
2017-Dec-18 13:30N 38°27' W 028°41'3 5.1
2017-Dec-18 13:00N 38°27' W 028°44'3 5.7
2017-Dec-18 12:30N 38°27' W 028°47'4 7.9
2017-Dec-18 12:00N 38°26' W 028°52'4 8.3
2017-Dec-18 11:30N 38°25' W 028°57'4 8.4
2017-Dec-18 11:00N 38°23' W 029°02'4 8.5
2017-Dec-18 10:30N 38°22' W 029°07'4 8.2
2017-Dec-18 10:00N 38°20' W 029°12'4 7.9
2017-Dec-18 09:30N 38°19' W 029°17'4 8.0
2017-Dec-18 09:00N 38°18' W 029°22'4 8.0
2017-Dec-18 08:30N 38°16' W 029°27'4 7.7
2017-Dec-18 08:00N 38°15' W 029°31'4 8.0
2017-Dec-18 07:30N 38°14' W 029°36'4 8.3
2017-Dec-18 07:00N 38°13' W 029°41'4 8.2
2017-Dec-18 06:30N 38°11' W 029°46'4 8.0
2017-Dec-18 06:00N 38°10' W 029°51'4 7.9
2017-Dec-18 05:30N 38°09' W 029°56'4 7.8
2017-Dec-18 05:00N 38°07' W 030°00'4 8.0
2017-Dec-18 04:30N 38°06' W 030°05'4 8.2
2017-Dec-18 04:00N 38°04' W 030°10'  

Dump ship's entire track history